Time;durP1;ratioP1;P1;durP2;ratioP2;P2;SDS_P1;SDS_P2;PMS_P1;PMS_P2;Temp;Humidity;BMP_temperature;BMP_pressure;BME280_temperature;BME280_humidity;BME280_pressure;Samples;Min_cycle;Max_cycle;Signal;HPM_P1;HPM_P2
2022/01/01 00:01:50;;;;;;;51.23;30.07;;;12.00;99.90;;;;;;5062282;28;20435;-67
2022/01/01 00:04:18;;;;;;;35.53;24.20;;;11.90;99.90;;;;;;5061827;28;20443;-68
2022/01/01 00:06:46;;;;;;;47.00;23.83;;;12.00;99.90;;;;;;5061988;28;20475;-67
2022/01/01 00:09:13;;;;;;;42.10;22.60;;;11.90;99.90;;;;;;5062007;28;20454;-68
2022/01/01 00:11:41;;;;;;;46.13;22.83;;;12.00;99.90;;;;;;5061434;28;21110;-68
2022/01/01 00:14:11;;;;;;;41.10;21.10;;;12.00;99.90;;;;;;5060959;28;20443;-67
2022/01/01 00:16:38;;;;;;;33.73;16.50;;;12.00;99.90;;;;;;5060585;28;20463;-68
2022/01/01 00:19:06;;;;;;;28.83;16.73;;;11.90;99.90;;;;;;5060686;28;20515;-68
2022/01/01 00:21:34;;;;;;;31.23;16.70;;;12.00;99.90;;;;;;5061707;28;20446;-67
2022/01/01 00:24:02;;;;;;;34.47;14.70;;;11.90;99.90;;;;;;5060621;28;20447;-67
2022/01/01 00:26:30;;;;;;;30.53;14.80;;;11.90;99.90;;;;;;5061167;28;20485;-68
2022/01/01 00:28:58;;;;;;;23.77;14.20;;;11.90;99.90;;;;;;5061451;28;20937;-68
2022/01/01 00:31:28;;;;;;;26.37;16.23;;;12.00;99.90;;;;;;5061703;28;20916;-67
2022/01/01 00:33:57;;;;;;;24.27;13.57;;;12.00;99.90;;;;;;5061270;28;20438;-67
2022/01/01 00:36:25;;;;;;;27.30;13.10;;;12.00;99.90;;;;;;5061057;28;20740;-68
2022/01/01 00:38:52;;;;;;;22.00;13.60;;;12.00;99.90;;;;;;5061275;28;20435;-66
2022/01/01 00:41:20;;;;;;;31.37;13.27;;;12.00;99.90;;;;;;5061461;28;20505;-68
2022/01/01 00:43:49;;;;;;;23.07;13.47;;;12.00;99.90;;;;;;5060922;28;20643;-67
2022/01/01 00:46:17;;;;;;;29.03;14.47;;;12.00;99.90;;;;;;5060553;28;20660;-67
2022/01/01 00:48:46;;;;;;;27.00;13.90;;;12.00;99.90;;;;;;5061427;28;20536;-66
2022/01/01 00:51:27;;;;;;;30.23;13.10;;;12.00;99.90;;;;;;5076851;28;20482;-66
2022/01/01 00:53:55;;;;;;;24.80;13.80;;;12.00;99.90;;;;;;5080264;28;20442;-67
2022/01/01 00:56:22;;;;;;;33.13;12.97;;;12.00;99.90;;;;;;5062374;28;20455;-66
2022/01/01 00:58:50;;;;;;;31.47;12.70;;;12.00;99.90;;;;;;5060745;28;20541;-67
2022/01/01 01:01:18;;;;;;;21.73;11.83;;;11.90;99.90;;;;;;5061145;28;20704;-67
2022/01/01 01:03:47;;;;;;;28.63;12.40;;;11.90;99.90;;;;;;5060582;28;20592;-68
2022/01/01 01:06:15;;;;;;;21.17;11.43;;;12.00;99.90;;;;;;5060727;28;20750;-67
2022/01/01 01:08:43;;;;;;;18.67;10.00;;;12.00;99.90;;;;;;5060558;28;20958;-67
2022/01/01 01:11:12;;;;;;;29.20;12.80;;;12.00;99.90;;;;;;5060292;28;20439;-67
2022/01/01 01:13:42;;;;;;;23.37;10.63;;;12.00;99.90;;;;;;5060359;28;20712;-68
2022/01/01 01:16:10;;;;;;;27.20;10.83;;;12.00;99.90;;;;;;5060967;28;20593;-67
2022/01/01 01:18:38;;;;;;;30.83;11.37;;;12.00;99.90;;;;;;5059759;28;20459;-67
2022/01/01 01:21:07;;;;;;;17.90;11.37;;;12.00;99.90;;;;;;5060322;28;20444;-67
2022/01/01 01:23:35;;;;;;;26.67;10.87;;;12.00;99.90;;;;;;5059829;28;20451;-68
2022/01/01 01:26:03;;;;;;;19.27;10.20;;;12.00;99.90;;;;;;5060573;28;20474;-67
2022/01/01 01:28:31;;;;;;;26.23;10.87;;;12.00;99.90;;;;;;5060389;28;20447;-68
2022/01/01 01:30:59;;;;;;;26.27;12.23;;;12.00;99.90;;;;;;5060387;28;20446;-67
2022/01/01 01:33:27;;;;;;;19.60;11.63;;;12.00;99.90;;;;;;5059962;28;20750;-67
2022/01/01 01:35:56;;;;;;;25.07;11.50;;;12.00;99.90;;;;;;5060536;28;20465;-67
2022/01/01 01:38:25;;;;;;;19.47;10.50;;;12.00;99.90;;;;;;5060029;28;20447;-66
2022/01/01 01:40:53;;;;;;;20.37;11.53;;;12.10;99.90;;;;;;5060507;28;20435;-66
2022/01/01 01:43:22;;;;;;;22.17;11.03;;;12.10;99.90;;;;;;5059897;28;20435;-67
2022/01/01 01:45:51;;;;;;;25.17;10.40;;;12.10;99.90;;;;;;5060308;28;20516;-68
2022/01/01 01:48:19;;;;;;;26.67;10.20;;;12.10;99.90;;;;;;5060415;28;20825;-68
2022/01/01 01:50:47;;;;;;;17.40;10.50;;;12.10;99.90;;;;;;5060098;28;20439;-67
2022/01/01 01:53:15;;;;;;;24.30;11.20;;;12.10;99.90;;;;;;5059938;28;20436;-68
2022/01/01 01:55:44;;;;;;;19.93;10.33;;;12.10;99.90;;;;;;5060036;28;20451;-67
2022/01/01 01:58:12;;;;;;;18.97;10.17;;;12.10;99.90;;;;;;5062525;28;20453;-67
2022/01/01 02:01:07;;;;;;;26.80;12.13;;;12.00;99.90;;;;;;5060553;28;20439;-67
2022/01/01 02:03:36;;;;;;;18.03;9.97;;;12.10;99.90;;;;;;5060244;28;20454;-65
2022/01/01 02:06:06;;;;;;;13.83;9.37;;;12.00;99.90;;;;;;5059965;28;20533;-68
2022/01/01 02:08:34;;;;;;;19.60;10.33;;;12.10;99.90;;;;;;5059531;28;20769;-66
2022/01/01 02:11:04;;;;;;;18.50;10.73;;;12.10;99.90;;;;;;5059338;28;20436;-68
2022/01/01 02:13:36;;;;;;;22.63;10.03;;;12.10;99.90;;;;;;5059217;28;20439;-67
2022/01/01 02:16:31;;;;;;;19.33;9.70;;;12.10;99.90;;;;;;5059818;28;20465;-68
2022/01/01 02:18:59;;;;;;;21.93;10.30;;;12.10;99.90;;;;;;5059191;28;20958;-65
2022/01/01 02:21:31;;;;;;;26.57;9.80;;;12.10;99.90;;;;;;5059876;28;20804;-65
2022/01/01 02:23:59;;;;;;;19.10;9.80;;;12.00;99.90;;;;;;5059361;28;20465;-66
2022/01/01 02:26:32;;;;;;;17.60;9.33;;;12.10;99.90;;;;;;5058657;28;20487;-66
2022/01/01 02:29:02;;;;;;;41.97;11.67;;;12.10;99.90;;;;;;5058707;28;20493;-66
2022/01/01 02:31:33;;;;;;;20.90;10.63;;;12.10;99.90;;;;;;5059290;28;20439;-68
2022/01/01 02:34:05;;;;;;;21.30;10.23;;;12.10;99.90;;;;;;5058712;28;20439;-68
2022/01/01 02:36:36;;;;;;;25.73;11.47;;;12.10;99.90;;;;;;5058268;28;20460;-69
2022/01/01 02:39:11;;;;;;;17.30;9.97;;;12.10;99.90;;;;;;5057549;28;20435;-67
2022/01/01 02:41:39;;;;;;;26.97;11.70;;;12.10;99.90;;;;;;5058548;28;20449;-66
2022/01/01 02:44:07;;;;;;;25.87;10.90;;;12.10;99.90;;;;;;5058132;28;20470;-69
2022/01/01 02:46:35;;;;;;;20.90;10.47;;;12.10;99.90;;;;;;5058020;28;20529;-66
2022/01/01 02:49:04;;;;;;;18.73;11.10;;;12.20;99.90;;;;;;5058247;28;20656;-67
2022/01/01 02:51:34;;;;;;;15.73;10.53;;;12.20;99.90;;;;;;5058359;28;20530;-66
2022/01/01 02:54:02;;;;;;;18.60;10.93;;;12.20;99.90;;;;;;5058295;28;20786;-66
2022/01/01 02:56:30;;;;;;;21.60;11.97;;;12.20;99.90;;;;;;5058417;28;20468;-68
2022/01/01 02:58:57;;;;;;;26.30;11.50;;;12.20;99.90;;;;;;5059200;28;21037;-68
2022/01/01 03:01:25;;;;;;;23.07;10.00;;;12.20;99.90;;;;;;5059118;28;20430;-69
2022/01/01 03:03:53;;;;;;;21.50;12.60;;;12.20;99.90;;;;;;5058129;28;20926;-66
2022/01/01 03:06:24;;;;;;;21.13;11.70;;;12.30;99.90;;;;;;5057710;28;20455;-68
2022/01/01 03:08:55;;;;;;;22.57;11.70;;;12.20;99.90;;;;;;5057935;28;21005;-69
2022/01/01 03:11:23;;;;;;;29.20;13.10;;;12.20;99.90;;;;;;5057972;28;20553;-67
2022/01/01 03:13:51;;;;;;;27.77;12.10;;;12.20;99.90;;;;;;5057627;28;21097;-69
2022/01/01 03:16:19;;;;;;;23.37;11.80;;;12.20;99.90;;;;;;5057408;28;20466;-69
2022/01/01 03:18:47;;;;;;;21.33;12.43;;;12.20;99.90;;;;;;5057517;28;20456;-68
2022/01/01 03:21:14;;;;;;;37.80;15.57;;;12.20;99.90;;;;;;5058152;28;20504;-67
2022/01/01 03:23:42;;;;;;;22.57;13.77;;;12.30;99.90;;;;;;5065780;28;20470;-66
2022/01/01 03:26:12;;;;;;;24.77;13.20;;;12.20;99.90;;;;;;5080644;28;20567;-67
2022/01/01 03:28:40;;;;;;;30.60;13.90;;;12.20;99.90;;;;;;5062408;28;20551;-67
2022/01/01 03:31:08;;;;;;;24.93;13.43;;;12.20;99.90;;;;;;5058611;28;20776;-66
2022/01/01 03:33:36;;;;;;;31.80;14.53;;;12.30;99.90;;;;;;5057886;28;20471;-67
2022/01/01 03:36:04;;;;;;;32.33;13.90;;;12.20;99.90;;;;;;5058177;28;20455;-66
2022/01/01 03:38:32;;;;;;;30.67;17.17;;;12.20;99.90;;;;;;5058243;28;20509;-69
2022/01/01 03:41:00;;;;;;;28.20;14.80;;;12.20;99.90;;;;;;5058095;28;20439;-67
2022/01/01 03:43:29;;;;;;;25.23;13.40;;;12.20;99.90;;;;;;5058126;28;20435;-68
2022/01/01 03:45:57;;;;;;;22.30;13.03;;;12.20;99.90;;;;;;5057981;28;20477;-69
2022/01/01 03:48:25;;;;;;;23.13;14.00;;;12.20;99.90;;;;;;5065350;28;20626;-67
2022/01/01 03:50:53;;;;;;;25.17;13.10;;;12.20;99.90;;;;;;5069373;28;20448;-68
2022/01/01 03:53:21;;;;;;;28.37;13.40;;;12.20;99.90;;;;;;5070380;28;20821;-68
2022/01/01 03:55:49;;;;;;;23.73;12.20;;;12.20;99.90;;;;;;5064287;28;20474;-67
2022/01/01 03:58:17;;;;;;;25.50;13.60;;;12.20;99.90;;;;;;5061644;28;20445;-68
2022/01/01 04:00:46;;;;;;;29.70;15.37;;;12.30;99.90;;;;;;5061633;28;20946;-68
2022/01/01 04:03:17;;;;;;;23.37;14.20;;;12.20;99.90;;;;;;5060727;28;21052;-68
2022/01/01 04:05:45;;;;;;;26.83;13.87;;;12.30;99.90;;;;;;5060868;28;20467;-68
2022/01/01 04:08:14;;;;;;;30.30;12.47;;;12.30;99.90;;;;;;5060812;28;20476;-68
2022/01/01 04:10:42;;;;;;;31.50;13.50;;;12.30;99.90;;;;;;5061189;28;20447;-68
2022/01/01 04:13:11;;;;;;;25.10;16.20;;;12.20;99.90;;;;;;5061019;28;20447;-68
2022/01/01 04:15:41;;;;;;;25.47;12.77;;;12.30;99.90;;;;;;5061120;28;20470;-68
2022/01/01 04:18:12;;;;;;;28.57;14.60;;;12.30;99.90;;;;;;5060115;28;20763;-68
2022/01/01 04:20:41;;;;;;;34.07;14.37;;;12.30;99.90;;;;;;5060926;28;20651;-69
2022/01/01 04:23:10;;;;;;;26.43;14.37;;;12.30;99.90;;;;;;5060360;28;20997;-68
2022/01/01 04:25:39;;;;;;;27.50;14.97;;;12.30;99.90;;;;;;5060668;28;20459;-68
2022/01/01 04:28:06;;;;;;;32.77;13.80;;;12.30;99.90;;;;;;5060670;28;21008;-67
2022/01/01 04:30:34;;;;;;;31.20;14.30;;;12.30;99.90;;;;;;5061235;28;20439;-67
2022/01/01 04:33:02;;;;;;;21.87;13.47;;;12.30;99.90;;;;;;5061128;28;20944;-67
2022/01/01 04:35:31;;;;;;;33.10;15.73;;;12.30;99.90;;;;;;5060297;28;20720;-65
2022/01/01 04:37:59;;;;;;;30.73;14.67;;;12.30;99.90;;;;;;5060324;28;20439;-67
2022/01/01 04:40:27;;;;;;;29.13;16.30;;;12.40;99.90;;;;;;5060670;28;20453;-69
2022/01/01 04:42:55;;;;;;;26.53;14.90;;;12.40;99.90;;;;;;5060402;28;20447;-66
2022/01/01 04:45:22;;;;;;;33.53;15.83;;;12.40;99.90;;;;;;5060118;28;20546;-67
2022/01/01 04:47:50;;;;;;;32.03;15.60;;;12.40;99.90;;;;;;5059856;28;20439;-67
2022/01/01 04:50:18;;;;;;;33.57;17.00;;;12.40;99.90;;;;;;5060135;28;20505;-68
2022/01/01 04:52:47;;;;;;;35.20;16.40;;;12.40;99.90;;;;;;5060074;28;20469;-68
2022/01/01 04:55:15;;;;;;;29.87;15.93;;;12.40;99.90;;;;;;5060232;28;20461;-67
2022/01/01 04:57:43;;;;;;;31.63;15.90;;;12.40;99.90;;;;;;5060253;28;20538;-68
2022/01/01 05:00:11;;;;;;;32.40;15.60;;;12.30;99.90;;;;;;5060092;28;20439;-68
2022/01/01 05:02:39;;;;;;;31.17;16.23;;;12.40;99.90;;;;;;5059428;28;20439;-66
2022/01/01 05:05:08;;;;;;;30.40;18.17;;;12.40;99.90;;;;;;5059335;28;20508;-68
2022/01/01 05:07:36;;;;;;;36.83;19.20;;;12.40;99.90;;;;;;5059518;28;20487;-67
2022/01/01 05:10:06;;;;;;;27.10;17.87;;;12.30;99.90;;;;;;5059441;28;20713;-69
2022/01/01 05:12:34;;;;;;;37.87;20.10;;;12.30;99.90;;;;;;5059365;28;20436;-67
2022/01/01 05:15:02;;;;;;;32.63;18.30;;;12.40;99.90;;;;;;5059589;28;20470;-67
2022/01/01 05:17:30;;;;;;;40.63;19.93;;;12.40;99.90;;;;;;5059264;28;20914;-66
2022/01/01 05:19:58;;;;;;;30.63;16.80;;;12.40;99.90;;;;;;5059628;28;20431;-67
2022/01/01 05:22:26;;;;;;;33.17;17.77;;;12.40;99.90;;;;;;5060481;28;20727;-67
2022/01/01 05:24:56;;;;;;;34.47;17.97;;;12.40;99.90;;;;;;5060269;28;20460;-69
2022/01/01 05:27:25;;;;;;;30.50;19.00;;;12.40;99.90;;;;;;5061232;28;21058;-69
2022/01/01 05:29:53;;;;;;;31.63;18.60;;;12.40;99.90;;;;;;5060959;28;20468;-66
2022/01/01 05:32:21;;;;;;;36.93;18.77;;;12.40;99.90;;;;;;5061217;28;20973;-67
2022/01/01 05:34:48;;;;;;;38.93;19.10;;;12.40;99.90;;;;;;5060719;28;20443;-67
2022/01/01 05:37:16;;;;;;;36.27;18.80;;;12.40;99.90;;;;;;5059001;28;20463;-69
2022/01/01 05:39:44;;;;;;;38.13;19.83;;;12.30;99.90;;;;;;5058957;28;20808;-69
2022/01/01 05:42:12;;;;;;;30.43;17.33;;;12.30;99.90;;;;;;5058497;28;20515;-67
2022/01/01 05:44:41;;;;;;;36.77;19.13;;;12.30;99.90;;;;;;5058926;28;20632;-66
2022/01/01 05:47:09;;;;;;;35.93;19.13;;;12.30;99.90;;;;;;5058933;28;20463;-66
2022/01/01 05:49:37;;;;;;;32.10;18.30;;;12.40;99.90;;;;;;5058742;28;20506;-68
2022/01/01 05:52:05;;;;;;;38.53;20.40;;;12.40;99.90;;;;;;5059393;28;20431;-67
2022/01/01 05:54:33;;;;;;;39.53;17.83;;;12.40;99.90;;;;;;5060073;28;20534;-68
2022/01/01 05:57:01;;;;;;;41.10;20.00;;;12.40;99.90;;;;;;5069564;28;20450;-66
2022/01/01 05:59:29;;;;;;;40.23;19.60;;;12.40;99.90;;;;;;5079136;28;20446;-66
2022/01/01 06:01:58;;;;;;;33.63;19.13;;;12.40;99.90;;;;;;5060099;28;20445;-68
2022/01/01 06:04:26;;;;;;;37.23;18.13;;;12.40;99.90;;;;;;5058877;28;20443;-67
2022/01/01 06:06:56;;;;;;;35.63;18.33;;;12.40;99.90;;;;;;5059236;28;20491;-68
2022/01/01 06:09:23;;;;;;;33.10;17.60;;;12.40;99.90;;;;;;5059079;28;20841;-67
2022/01/01 06:11:51;;;;;;;31.10;16.60;;;12.40;99.90;;;;;;5059607;28;20440;-67
2022/01/01 06:14:20;;;;;;;40.43;18.20;;;12.40;99.90;;;;;;5058999;28;20555;-67
2022/01/01 06:16:48;;;;;;;36.00;17.53;;;12.40;99.90;;;;;;5058637;28;20603;-68
2022/01/01 06:19:18;;;;;;;30.63;16.83;;;12.40;99.90;;;;;;5059050;28;20482;-68
2022/01/01 06:21:45;;;;;;;42.77;18.63;;;12.30;99.90;;;;;;5059036;28;20439;-68
2022/01/01 06:24:13;;;;;;;36.27;17.30;;;12.30;99.90;;;;;;5058506;28;20734;-69
2022/01/01 06:26:41;;;;;;;37.03;17.70;;;12.30;99.90;;;;;;5058889;28;21009;-67
2022/01/01 06:29:09;;;;;;;37.07;16.40;;;12.30;99.90;;;;;;5058445;28;20821;-68
2022/01/01 06:31:37;;;;;;;42.83;18.13;;;12.30;99.90;;;;;;5058863;28;20528;-68
2022/01/01 06:34:05;;;;;;;39.23;17.20;;;12.40;99.90;;;;;;5058372;28;20440;-67
2022/01/01 06:36:35;;;;;;;26.90;17.00;;;12.40;99.90;;;;;;5058513;28;20524;-68
2022/01/01 06:39:03;;;;;;;30.53;16.97;;;12.40;99.90;;;;;;5059097;28;20435;-67
2022/01/01 06:41:31;;;;;;;30.20;17.17;;;12.40;99.90;;;;;;5058799;28;20553;-67
2022/01/01 06:43:59;;;;;;;34.40;17.30;;;12.30;99.90;;;;;;5058740;28;20649;-67
2022/01/01 06:46:27;;;;;;;29.27;16.47;;;12.30;99.90;;;;;;5058565;28;20962;-66
2022/01/01 06:48:55;;;;;;;36.67;17.50;;;12.40;99.90;;;;;;5058825;28;20450;-69
2022/01/01 06:51:22;;;;;;;33.57;15.87;;;12.40;99.90;;;;;;5058755;28;21009;-67
2022/01/01 06:53:52;;;;;;;27.83;15.67;;;12.30;99.90;;;;;;5060349;28;20445;-66
2022/01/01 06:56:19;;;;;;;35.83;15.60;;;12.30;99.90;;;;;;5059878;28;20467;-69
2022/01/01 06:58:47;;;;;;;30.40;17.17;;;12.30;99.90;;;;;;5058309;28;20707;-67
2022/01/01 07:01:15;;;;;;;28.83;14.93;;;12.40;99.90;;;;;;5058557;28;20830;-68
2022/01/01 07:03:43;;;;;;;27.40;14.67;;;12.40;99.90;;;;;;5058150;28;20597;-68
2022/01/01 07:06:11;;;;;;;29.73;16.70;;;12.40;99.90;;;;;;5058914;28;20852;-67
2022/01/01 07:08:39;;;;;;;31.60;17.00;;;12.40;99.90;;;;;;5059108;28;21055;-68
2022/01/01 07:11:08;;;;;;;31.83;15.20;;;12.30;99.90;;;;;;5058421;28;20502;-68
2022/01/01 07:13:36;;;;;;;39.90;16.63;;;12.30;99.90;;;;;;5058578;28;20439;-68
2022/01/01 07:16:04;;;;;;;30.97;16.53;;;12.30;99.90;;;;;;5058075;28;20922;-68
2022/01/01 07:18:32;;;;;;;30.40;15.63;;;12.30;99.90;;;;;;5057719;28;20688;-69
2022/01/01 07:21:00;;;;;;;22.97;13.67;;;12.30;99.90;;;;;;5057966;28;20477;-68
2022/01/01 07:23:28;;;;;;;33.23;15.00;;;12.30;99.90;;;;;;5057578;28;20474;-67
2022/01/01 07:25:57;;;;;;;42.93;16.87;;;12.40;99.90;;;;;;5059874;28;20539;-68
2022/01/01 07:28:26;;;;;;;30.60;14.87;;;12.40;99.90;;;;;;5061895;28;20475;-68
2022/01/01 07:30:54;;;;;;;39.17;16.47;;;12.40;99.90;;;;;;5061872;28;20565;-68
2022/01/01 07:33:21;;;;;;;36.73;17.60;;;12.40;99.90;;;;;;5061812;28;20439;-68
2022/01/01 07:35:49;;;;;;;40.00;16.33;;;12.40;99.90;;;;;;5062050;28;20467;-68
2022/01/01 07:38:17;;;;;;;31.10;15.87;;;12.40;99.90;;;;;;5061919;28;20451;-67
2022/01/01 07:40:45;;;;;;;33.80;15.67;;;12.40;99.90;;;;;;5061721;28;20466;-68
2022/01/01 07:43:13;;;;;;;31.27;16.17;;;12.40;99.90;;;;;;5061382;28;21068;-67
2022/01/01 07:45:43;;;;;;;29.60;16.63;;;12.40;99.90;;;;;;5061441;28;20550;-67
2022/01/01 07:48:11;;;;;;;35.00;15.90;;;12.50;99.90;;;;;;5061282;28;20531;-68
2022/01/01 07:50:40;;;;;;;39.20;16.80;;;12.50;99.90;;;;;;5061662;28;20475;-67
2022/01/01 07:53:09;;;;;;;26.57;15.10;;;12.50;99.90;;;;;;5061832;28;20535;-67
2022/01/01 07:55:37;;;;;;;33.70;16.80;;;12.50;99.90;;;;;;5061332;28;20463;-68
2022/01/01 07:58:05;;;;;;;25.63;14.97;;;12.40;99.90;;;;;;5061313;28;20436;-68
2022/01/01 08:00:33;;;;;;;34.43;16.13;;;12.50;99.90;;;;;;5061780;28;20535;-69
2022/01/01 08:03:03;;;;;;;30.83;17.37;;;12.50;99.90;;;;;;5061433;28;20455;-67
2022/01/01 08:05:31;;;;;;;36.63;16.10;;;12.50;99.90;;;;;;5061269;28;20490;-69
2022/01/01 08:08:00;;;;;;;28.40;14.97;;;12.50;99.90;;;;;;5061019;28;20555;-68
2022/01/01 08:10:31;;;;;;;35.07;16.73;;;12.50;99.90;;;;;;5061182;28;20847;-67
2022/01/01 08:12:59;;;;;;;34.13;15.23;;;12.50;99.90;;;;;;5060967;28;20864;-68
2022/01/01 08:15:27;;;;;;;34.73;16.60;;;12.50;99.90;;;;;;5061280;28;20462;-68
2022/01/01 08:17:54;;;;;;;44.77;17.30;;;12.50;99.90;;;;;;5064519;28;20439;-67
2022/01/01 08:20:24;;;;;;;40.10;19.73;;;12.50;99.90;;;;;;5071176;28;20490;-67
2022/01/01 08:22:51;;;;;;;39.60;19.17;;;12.50;99.90;;;;;;5067419;28;20453;-67
2022/01/01 08:25:21;;;;;;;31.13;17.90;;;12.50;99.90;;;;;;5064692;28;20471;-67
2022/01/01 08:27:49;;;;;;;32.50;17.90;;;12.50;99.90;;;;;;5063295;28;20541;-67
2022/01/01 08:30:17;;;;;;;41.33;18.17;;;12.50;99.90;;;;;;5082997;28;20423;-67
2022/01/01 08:32:44;;;;;;;43.70;19.60;;;12.50;99.90;;;;;;5070839;28;20443;-68
2022/01/01 08:35:12;;;;;;;34.80;16.67;;;12.50;99.90;;;;;;5060984;28;20439;-67
2022/01/01 08:37:42;;;;;;;36.73;18.27;;;12.60;99.90;;;;;;5059801;28;21079;-68
2022/01/01 08:40:11;;;;;;;34.10;17.43;;;12.60;99.90;;;;;;5061205;28;20534;-67
2022/01/01 08:42:39;;;;;;;39.10;17.17;;;12.70;99.90;;;;;;5061084;28;20435;-68
2022/01/01 08:45:07;;;;;;;29.30;15.53;;;12.70;99.90;;;;;;5060767;28;20993;-67
2022/01/01 08:47:35;;;;;;;35.00;18.63;;;12.70;99.90;;;;;;5060333;28;20804;-68
2022/01/01 08:50:03;;;;;;;41.07;18.60;;;12.70;99.90;;;;;;5060229;28;20444;-68
2022/01/01 08:52:31;;;;;;;32.00;17.23;;;12.60;99.90;;;;;;5060209;28;21110;-68
2022/01/01 08:55:00;;;;;;;36.43;17.23;;;12.70;99.90;;;;;;5060367;28;20511;-68
2022/01/01 08:57:29;;;;;;;40.27;18.37;;;12.70;99.90;;;;;;5060536;28;20444;-67
2022/01/01 08:59:57;;;;;;;42.10;18.03;;;12.80;99.90;;;;;;5060294;28;20447;-68
2022/01/01 09:02:25;;;;;;;39.03;19.20;;;12.80;99.90;;;;;;5060169;28;20504;-67
2022/01/01 09:04:53;;;;;;;33.00;17.43;;;12.80;99.90;;;;;;5060431;28;21057;-67
2022/01/01 09:07:27;;;;;;;39.70;18.13;;;12.80;99.90;;;;;;5060238;28;20604;-68
2022/01/01 09:09:56;;;;;;;34.97;17.73;;;12.80;99.90;;;;;;5060045;28;20561;-67
2022/01/01 09:12:25;;;;;;;40.27;18.60;;;12.80;99.90;;;;;;5059929;28;20789;-68
2022/01/01 09:14:53;;;;;;;37.67;18.00;;;12.80;99.90;;;;;;5059734;28;20511;-68
2022/01/01 09:17:22;;;;;;;41.43;19.87;;;12.80;99.90;;;;;;5060345;28;20915;-67
2022/01/01 09:19:50;;;;;;;37.20;19.63;;;12.80;99.90;;;;;;5062770;28;20877;-68
2022/01/01 09:22:19;;;;;;;39.50;18.93;;;12.80;99.90;;;;;;5062140;28;20607;-67
2022/01/01 09:24:47;;;;;;;39.73;19.43;;;12.80;99.90;;;;;;5060397;28;20685;-67
2022/01/01 09:27:14;;;;;;;47.10;21.80;;;12.90;99.90;;;;;;5062319;28;20735;-68
2022/01/01 09:29:44;;;;;;;49.30;21.60;;;12.90;99.90;;;;;;5060859;28;20555;-66
2022/01/01 09:32:11;;;;;;;32.20;19.80;;;12.90;99.90;;;;;;5059491;28;20489;-67
2022/01/01 09:34:44;;;;;;;39.97;20.40;;;12.90;99.90;;;;;;5059474;28;20948;-66
2022/01/01 09:37:12;;;;;;;44.43;21.30;;;13.00;99.90;;;;;;5059700;28;20764;-66
2022/01/01 09:39:39;;;;;;;48.37;23.50;;;13.00;99.90;;;;;;5060111;28;20882;-68
2022/01/01 09:42:11;;;;;;;52.10;24.23;;;12.90;99.90;;;;;;5059637;28;20443;-68
2022/01/01 09:44:40;;;;;;;55.60;25.77;;;12.90;99.90;;;;;;5059406;28;20526;-68
2022/01/01 09:47:10;;;;;;;49.87;24.27;;;12.90;99.90;;;;;;5059954;28;20469;-68
2022/01/01 09:49:39;;;;;;;52.20;24.60;;;12.90;99.90;;;;;;5059665;28;20723;-68
2022/01/01 09:52:09;;;;;;;57.07;25.60;;;12.90;99.90;;;;;;5059389;28;20550;-68
2022/01/01 09:54:42;;;;;;;66.73;31.33;;;12.90;99.90;;;;;;5059266;28;20685;-68
2022/01/01 09:57:11;;;;;;;62.73;29.50;;;12.90;99.90;;;;;;5059429;28;20699;-68
2022/01/01 09:59:38;;;;;;;59.73;33.83;;;12.90;99.90;;;;;;5059223;28;20463;-67
2022/01/01 10:02:07;;;;;;;61.47;30.67;;;12.80;99.90;;;;;;5059577;28;20435;-67
2022/01/01 10:04:43;;;;;;;55.37;30.30;;;12.80;99.90;;;;;;5059295;28;20530;-68
2022/01/01 10:07:13;;;;;;;61.13;32.10;;;12.80;99.90;;;;;;5059839;28;20491;-67
2022/01/01 10:09:41;;;;;;;75.83;34.97;;;12.90;99.90;;;;;;5059000;28;20440;-67
2022/01/01 10:12:12;;;;;;;61.73;32.27;;;12.90;99.90;;;;;;5059278;28;20658;-67
2022/01/01 10:14:41;;;;;;;71.47;38.40;;;12.90;99.90;;;;;;5059066;28;20467;-69
2022/01/01 10:17:15;;;;;;;72.90;36.50;;;12.90;99.90;;;;;;5058595;28;20463;-67
2022/01/01 10:19:45;;;;;;;70.77;36.00;;;12.90;99.90;;;;;;5058997;28;20431;-67
2022/01/01 10:22:14;;;;;;;74.67;38.10;;;12.90;99.90;;;;;;5059016;28;21007;-68
2022/01/01 10:27:46;;;;;;;82.53;42.30;;;12.90;99.90;;;;;;5058700;28;20747;-67
2022/01/01 10:30:22;;;;;;;94.60;41.30;;;12.90;99.90;;;;;;5058701;28;21048;-68
2022/01/01 10:33:04;;;;;;;86.53;41.27;;;12.80;99.90;;;;;;5058646;28;20474;-68
2022/01/01 10:35:38;;;;;;;79.07;38.50;;;12.80;99.90;;;;;;5059027;28;20452;-68
2022/01/01 10:38:13;;;;;;;81.97;39.77;;;12.80;99.90;;;;;;5058716;28;20646;-69
2022/01/01 10:40:42;;;;;;;76.77;41.97;;;12.80;99.90;;;;;;5058912;28;20511;-67
2022/01/01 10:43:11;;;;;;;87.60;43.20;;;12.80;99.90;;;;;;5058636;28;20809;-68
2022/01/01 10:45:40;;;;;;;71.13;40.50;;;12.80;99.90;;;;;;5058491;28;20466;-69
2022/01/01 10:48:23;;;;;;;84.43;42.20;;;12.90;99.90;;;;;;5058776;28;20855;-68
2022/01/01 10:50:55;;;;;;;77.93;40.57;;;12.90;99.90;;;;;;5058778;28;20460;-68
2022/01/01 10:53:25;;;;;;;87.17;45.40;;;12.80;99.90;;;;;;5058731;28;20497;-68
2022/01/01 10:55:54;;;;;;;89.47;41.63;;;12.90;99.90;;;;;;5058953;28;20874;-66
2022/01/01 10:58:26;;;;;;;78.63;43.63;;;12.80;99.90;;;;;;5059572;28;20432;-69
2022/01/01 11:00:59;;;;;;;75.07;39.20;;;12.80;99.90;;;;;;5076061;28;20443;-69
2022/01/01 11:03:28;;;;;;;77.70;40.47;;;12.80;99.90;;;;;;5081054;28;20444;-68
2022/01/01 11:06:06;;;;;;;76.40;44.10;;;12.80;99.90;;;;;;5065447;28;20497;-68
2022/01/01 11:08:34;;;;;;;74.17;38.93;;;12.80;99.90;;;;;;5070216;28;20442;-67
2022/01/01 11:11:02;;;;;;;75.23;39.30;;;12.80;99.90;;;;;;5069477;28;20681;-67
2022/01/01 11:13:31;;;;;;;75.50;40.77;;;12.90;99.90;;;;;;5066806;28;21065;-67
2022/01/01 11:15:59;;;;;;;70.13;38.27;;;12.90;99.90;;;;;;5066631;28;20459;-67
2022/01/01 11:18:27;;;;;;;81.93;40.50;;;12.90;99.90;;;;;;5065064;28;20538;-68
2022/01/01 11:20:56;;;;;;;68.57;38.60;;;12.90;99.90;;;;;;5063356;28;20439;-68
2022/01/01 11:23:26;;;;;;;80.50;39.03;;;12.90;99.90;;;;;;5061881;28;20836;-67
2022/01/01 11:25:54;;;;;;;71.20;34.97;;;13.00;99.90;;;;;;5062608;28;20614;-67
2022/01/01 11:28:23;;;;;;;64.27;36.40;;;13.00;99.90;;;;;;5062741;28;20485;-68
2022/01/01 11:31:00;;;;;;;53.83;32.70;;;12.90;99.90;;;;;;5062672;28;20439;-68
2022/01/01 11:33:31;;;;;;;57.37;29.90;;;12.90;99.90;;;;;;5062744;28;20554;-67
2022/01/01 11:36:00;;;;;;;51.87;28.67;;;13.00;99.90;;;;;;5062649;28;20498;-69
2022/01/01 11:38:31;;;;;;;50.07;29.30;;;13.10;99.90;;;;;;5062849;28;20524;-68
2022/01/01 11:41:03;;;;;;;56.00;30.10;;;13.20;99.90;;;;;;5062888;28;20435;-67
2022/01/01 11:43:39;;;;;;;50.27;29.87;;;13.20;99.90;;;;;;5062682;28;20536;-67
2022/01/01 11:46:12;;;;;;;55.17;28.53;;;13.30;99.90;;;;;;5063099;28;20852;-67
2022/01/01 11:48:49;;;;;;;56.10;27.03;;;13.40;99.90;;;;;;5062633;28;20462;-68
2022/01/01 11:51:35;;;;;;;47.50;27.00;;;13.40;99.90;;;;;;5062514;28;20590;-68
2022/01/01 11:54:07;;;;;;;49.27;25.50;;;13.40;99.90;;;;;;5062661;28;20736;-68
2022/01/01 11:57:13;;;;;;;47.97;28.93;;;13.50;99.90;;;;;;5062659;28;20677;-68
2022/01/01 11:59:49;;;;;;;50.03;26.70;;;13.50;99.90;;;;;;5062802;28;20817;-68
2022/01/01 12:02:35;;;;;;;61.37;29.10;;;13.50;99.90;;;;;;5062536;28;20694;-67
2022/01/01 12:05:22;;;;;;;45.03;26.20;;;13.50;99.90;;;;;;5062393;28;20449;-71
2022/01/01 12:07:53;;;;;;;50.27;26.67;;;13.50;99.90;;;;;;5061888;28;20435;-68
2022/01/01 12:10:28;;;;;;;49.37;28.83;;;13.60;99.90;;;;;;5061819;28;20795;-68
2022/01/01 12:12:59;;;;;;;42.60;24.87;;;13.60;99.90;;;;;;5060293;28;20553;-67
2022/01/01 12:15:35;;;;;;;57.10;25.30;;;13.60;99.90;;;;;;5061382;28;20693;-68
2022/01/01 12:18:05;;;;;;;46.67;24.63;;;13.70;99.90;;;;;;5061230;28;20735;-68
2022/01/01 12:20:35;;;;;;;52.83;26.07;;;13.70;99.90;;;;;;5061515;28;20506;-69
2022/01/01 12:23:05;;;;;;;40.70;23.40;;;13.70;99.90;;;;;;5061023;28;20940;-68
2022/01/01 12:25:36;;;;;;;43.00;23.70;;;13.70;99.90;;;;;;5061124;28;20473;-68
2022/01/01 12:28:07;;;;;;;40.07;23.23;;;13.80;99.90;;;;;;5061245;28;20847;-68
2022/01/01 12:30:41;;;;;;;39.03;24.20;;;13.80;99.90;;;;;;5061436;28;20526;-68
2022/01/01 12:33:11;;;;;;;40.03;23.00;;;13.80;99.90;;;;;;5061970;28;20489;-68
2022/01/01 12:35:51;;;;;;;44.60;22.67;;;13.80;99.90;;;;;;5061906;28;20703;-68
2022/01/01 12:38:21;;;;;;;36.43;22.20;;;13.90;99.90;;;;;;5063228;28;20738;-68
2022/01/01 12:41:08;;;;;;;39.83;22.90;;;13.90;99.90;;;;;;5061633;28;20950;-69
2022/01/01 12:43:47;;;;;;;35.13;21.13;;;13.90;99.90;;;;;;5060626;28;20686;-68